Portada
METAR-TAF:

METAR-TAF

Aeroports :

Kushiro, Japó

latitud: 43-02N, longitud: 144-12E, altitud: 95 m

Observació

L'informe es va fer fa 1 hora i 1 minuts, a les 09:00 UTC
Vent 4 kt del Nord/Nord-Est
Temperatura -5°C
Humitat 58%
Pressió 1027 hPa
Visibilitat 10 km o més
Escasses núvols a una alçada de 3000 ft

METAR: RJCK 270900Z 02004KT 9999 FEW030 M05/M12 Q1027

Hora: 19:01 (10:01 UTC)

Pronòstic

L'informe es va fer fa 4 hores i 52 minuts, a les 05:09 UTC
Pronòstic vàlid del 27 a les 06 UTC al 28 a les 12 UTC
Vent 6 kt del Nord-Oest
Visibilitat 10 km o més
Escasses núvols a una alçada de 2000 ft
Evolucionant progressivament
l' 28 a les 00 UTC al 28 a les 03 UTC
Vent 11 kt del Sud-Oest

TAF: RJCK 270509Z 2706/2812 31006KT 9999 FEW020 BECMG 2800/2803 22011KT

Observacions i pronòstics meteorològics de més de 4000 aeroports (METAR i TAF).

Les estacions disponibles són els punts grocs i vermells al mapa.

Posi el ratolí al punt desitjat per veure el nom de l'estació.

Feu clic per veure les observacions i els pronòstics meteorològics.

Per canviar el mapa: feu clic els botons verds amb una creu de color negre per apropar; al botó verd amb un guió per allunyar la imatge; o en les fletxes verdes per a mapes adjacents.


METAR-TAF: